Time,TemperatureF,DewpointF,PressureIn,WindDirection,WindDirectionDegrees,WindSpeedMPH,WindSpeedGustMPH,Humidity,HourlyPrecipIn,Conditions,Clouds,dailyrainin,SolarRadiationWatts/m^2,SoftwareType,DateUTC
2013-02-20 00:05:00,39.0,30.7,29.84,WNW,287,1.4,4.6,72,0.00,RA,,0.00,0.0,WeatherDisplay:10.37,2013-02-20 08:05:00,
2013-02-20 00:10:00,39.3,30.3,29.84,WNW,298,0.0,0.0,70,0.00,,,0.00,0.0,WeatherDisplay:10.37,2013-02-20 08:10:00,
2013-02-20 00:15:00,39.3,30.3,29.84,WNW,300,2.4,3.5,70,0.00,,,0.00,0.0,WeatherDisplay:10.37,2013-02-20 08:15:00,
2013-02-20 00:20:00,39.5,30.5,29.84,West,274,2.9,6.9,70,0.00,,,0.00,0.0,WeatherDisplay:10.37,2013-02-20 08:20:00,
2013-02-20 00:25:00,39.5,30.5,29.84,WNW,297,3.0,6.9,70,0.00,,,0.00,0.0,WeatherDisplay:10.37,2013-02-20 08:25:00,
2013-02-20 00:30:00,39.6,30.3,29.84,WNW,296,5.5,10.4,69,0.00,,,0.00,0.0,WeatherDisplay:10.37,2013-02-20 08:30:00,
2013-02-20 00:35:00,39.7,30.4,29.84,WSW,253,3.6,10.4,69,0.00,,,0.00,0.0,WeatherDisplay:10.37,2013-02-20 08:35:00,
2013-02-20 00:40:00,39.7,30.4,29.84,WNW,292,3.6,5.8,69,0.00,,,0.00,0.0,WeatherDisplay:10.37,2013-02-20 08:40:00,
2013-02-20 00:45:00,39.6,30.3,29.84,WSW,258,3.2,6.9,69,0.00,,,0.00,0.0,WeatherDisplay:10.37,2013-02-20 08:45:00,
2013-02-20 00:50:00,39.7,30.4,29.84,WNW,298,1.0,3.5,69,0.00,,,0.00,0.0,WeatherDisplay:10.37,2013-02-20 08:50:00,
2013-02-20 00:55:00,39.7,30.4,29.84,West,277,1.4,3.5,69,0.00,,,0.00,0.0,WeatherDisplay:10.37,2013-02-20 08:55:00,
2013-02-20 01:00:00,39.5,30.2,29.84,WNW,287,0.4,3.5,69,0.00,,,0.00,0.0,WeatherDisplay:10.37,2013-02-20 09:00:00,
2013-02-20 01:05:00,39.4,30.1,29.84,West,272,0.0,1.1,69,0.00,,,0.00,0.0,WeatherDisplay:10.37,2013-02-20 09:05:00,
2013-02-20 01:10:00,39.2,29.9,29.84,NNW,332,0.9,3.5,69,0.00,,,0.00,0.0,WeatherDisplay:10.37,2013-02-20 09:10:00,
2013-02-20 01:15:00,38.9,29.9,29.84,West,274,0.3,1.1,70,0.00,,,0.00,0.0,WeatherDisplay:10.37,2013-02-20 09:15:00,
2013-02-20 01:20:00,38.4,29.8,29.85,West,274,0.7,3.5,71,0.00,,,0.00,0.0,WeatherDisplay:10.37,2013-02-20 09:20:00,
2013-02-20 01:25:00,38.2,30.0,29.85,West,273,0.0,0.0,72,0.00,,,0.00,0.0,WeatherDisplay:10.37,2013-02-20 09:25:00,
2013-02-20 01:30:00,38.0,29.8,29.85,West,274,0.2,1.1,72,0.00,,,0.00,0.0,WeatherDisplay:10.37,2013-02-20 09:30:00,
2013-02-20 01:35:00,37.7,29.8,29.86,West,274,0.0,0.0,73,0.00,,,0.00,0.0,WeatherDisplay:10.37,2013-02-20 09:35:00,
2013-02-20 01:40:00,37.7,29.8,29.86,West,274,0.1,2.3,73,0.00,,,0.00,0.0,WeatherDisplay:10.37,2013-02-20 09:40:00,
2013-02-20 01:45:00,37.7,29.8,29.86,West,275,0.0,0.0,73,0.00,,,0.00,0.0,WeatherDisplay:10.37,2013-02-20 09:45:00,
2013-02-20 01:50:00,37.9,30.0,29.86,West,275,0.0,1.1,73,0.00,,,0.00,0.0,WeatherDisplay:10.37,2013-02-20 09:50:00,
2013-02-20 01:55:00,38.2,30.0,29.86,West,275,0.0,2.3,72,0.00,,,0.00,0.0,WeatherDisplay:10.37,2013-02-20 09:55:00,
2013-02-20 02:00:00,38.4,30.2,29.87,West,275,0.1,1.1,72,0.00,,,0.00,0.0,WeatherDisplay:10.37,2013-02-20 10:00:00,
2013-02-20 02:05:00,38.4,30.2,29.87,West,275,0.0,2.3,72,0.00,,,0.00,0.0,WeatherDisplay:10.37,2013-02-20 10:05:00,
2013-02-20 02:10:00,38.4,30.2,29.87,West,275,0.0,0.0,72,0.00,,,0.00,0.0,WeatherDisplay:10.37,2013-02-20 10:10:00,
2013-02-20 02:15:00,38.4,30.2,29.87,West,275,0.0,0.0,72,0.00,,,0.00,0.0,WeatherDisplay:10.37,2013-02-20 10:15:00,
2013-02-20 02:20:00,38.4,30.2,29.87,West,275,0.0,0.0,72,0.00,,,0.00,0.0,WeatherDisplay:10.37,2013-02-20 10:20:00,
2013-02-20 02:25:00,38.4,30.2,29.87,WNW,291,0.0,1.1,72,0.00,,,0.00,0.0,WeatherDisplay:10.37,2013-02-20 10:25:00,
2013-02-20 02:30:00,38.5,29.9,29.87,WNW,291,0.0,0.0,71,0.00,,,0.00,0.0,WeatherDisplay:10.37,2013-02-20 10:30:00,
2013-02-20 02:35:00,38.4,29.8,29.87,WNW,291,0.0,0.0,71,0.00,,,0.00,0.0,WeatherDisplay:10.37,2013-02-20 10:35:00,
2013-02-20 02:40:00,38.2,30.0,29.87,WNW,291,0.0,0.0,72,0.00,,,0.00,0.0,WeatherDisplay:10.37,2013-02-20 10:40:00,
2013-02-20 02:45:00,38.0,29.8,29.87,WNW,291,0.0,0.0,72,0.00,,,0.00,0.0,WeatherDisplay:10.37,2013-02-20 10:45:00,
2013-02-20 02:50:00,38.1,29.9,29.87,WNW,291,0.0,0.0,72,0.00,,,0.00,0.0,WeatherDisplay:10.37,2013-02-20 10:50:00,
2013-02-20 02:55:00,37.9,29.7,29.87,WNW,291,0.0,0.0,72,0.00,,,0.00,0.0,WeatherDisplay:10.37,2013-02-20 10:55:00,
2013-02-20 03:00:00,37.6,29.7,29.87,WNW,291,0.0,0.0,73,0.00,,,0.00,0.0,WeatherDisplay:10.37,2013-02-20 11:00:00,
2013-02-20 03:05:00,37.6,29.7,29.87,WNW,291,0.4,2.3,73,0.00,,,0.00,0.0,WeatherDisplay:10.37,2013-02-20 11:05:00,
2013-02-20 03:10:00,37.7,29.8,29.87,WNW,291,0.0,0.0,73,0.00,,,0.00,0.0,WeatherDisplay:10.37,2013-02-20 11:10:00,
2013-02-20 03:15:00,37.4,29.9,29.87,WNW,291,0.0,2.3,74,0.00,,,0.00,0.0,WeatherDisplay:10.37,2013-02-20 11:15:00,
2013-02-20 03:20:00,37.5,29.6,29.87,WNW,291,0.0,0.0,73,0.00,,,0.00,0.0,WeatherDisplay:10.37,2013-02-20 11:20:00,
2013-02-20 03:25:00,37.4,29.5,29.87,WNW,292,0.0,0.0,73,0.00,,,0.00,0.0,WeatherDisplay:10.37,2013-02-20 11:25:00,
2013-02-20 03:30:00,37.2,29.7,29.87,WNW,291,0.0,1.1,74,0.00,,,0.00,0.0,WeatherDisplay:10.37,2013-02-20 11:30:00,
2013-02-20 03:35:00,37.5,30.0,29.88,WNW,292,0.0,1.1,74,0.00,,,0.00,0.0,WeatherDisplay:10.37,2013-02-20 11:35:00,
2013-02-20 03:40:00,37.5,29.6,29.88,WNW,293,0.1,0.0,73,0.00,,,0.00,0.0,WeatherDisplay:10.37,2013-02-20 11:40:00,
2013-02-20 03:45:00,37.7,29.8,29.88,WNW,292,0.0,0.0,73,0.00,,,0.00,0.0,WeatherDisplay:10.37,2013-02-20 11:45:00,
2013-02-20 03:50:00,37.8,29.9,29.88,WNW,293,0.0,0.0,73,0.00,,,0.00,0.0,WeatherDisplay:10.37,2013-02-20 11:50:00,
2013-02-20 03:55:00,38.0,30.1,29.88,WNW,292,0.0,0.0,73,0.00,,,0.00,0.0,WeatherDisplay:10.37,2013-02-20 11:55:00,
2013-02-20 04:00:00,37.9,30.4,29.88,WNW,292,0.0,0.0,74,0.00,,,0.00,0.0,WeatherDisplay:10.37,2013-02-20 12:00:00,
2013-02-20 04:05:00,38.1,30.5,29.88,WNW,292,0.0,0.0,74,0.00,,,0.00,0.0,WeatherDisplay:10.37,2013-02-20 12:05:00,
2013-02-20 04:10:00,38.4,30.8,29.88,WNW,292,0.0,0.0,74,0.00,,,0.00,0.0,WeatherDisplay:10.37,2013-02-20 12:10:00,
2013-02-20 04:15:00,38.4,30.8,29.88,WNW,292,0.0,0.0,74,0.00,,,0.00,0.0,WeatherDisplay:10.37,2013-02-20 12:15:00,
2013-02-20 04:20:00,37.9,30.4,29.88,WNW,292,1.9,3.5,74,0.00,,,0.00,0.0,WeatherDisplay:10.37,2013-02-20 12:20:00,
2013-02-20 04:25:00,37.3,30.1,29.89,WNW,292,0.0,1.0,75,0.00,,,0.00,0.0,WeatherDisplay:10.37,2013-02-20 12:25:00,
2013-02-20 04:30:00,37.1,30.2,29.89,West,267,1.8,3.5,76,0.00,,,0.00,0.0,WeatherDisplay:10.37,2013-02-20 12:30:00,
2013-02-20 04:35:00,37.1,30.2,29.89,West,267,1.7,3.5,76,0.00,,,0.00,0.0,WeatherDisplay:10.37,2013-02-20 12:35:00,
2013-02-20 04:40:00,37.0,30.5,29.89,West,267,0.0,1.1,77,0.00,,,0.00,0.0,WeatherDisplay:10.37,2013-02-20 12:40:00,
2013-02-20 04:45:00,37.0,30.1,29.89,West,267,1.9,3.5,76,0.00,,,0.00,0.0,WeatherDisplay:10.37,2013-02-20 12:45:00,
2013-02-20 04:50:00,37.1,30.6,29.89,West,267,0.2,2.3,77,0.00,,,0.00,0.0,WeatherDisplay:10.37,2013-02-20 12:50:00,
2013-02-20 04:55:00,37.2,30.3,29.89,West,267,0.0,0.0,76,0.00,,,0.00,0.0,WeatherDisplay:10.37,2013-02-20 12:55:00,
2013-02-20 05:00:00,37.0,30.1,29.89,West,265,0.3,1.1,76,0.00,,,0.00,0.0,WeatherDisplay:10.37,2013-02-20 13:00:00,
2013-02-20 05:05:00,37.1,30.6,29.90,West,265,1.8,2.3,77,0.00,,,0.00,0.0,WeatherDisplay:10.37,2013-02-20 13:05:00,
2013-02-20 05:10:00,37.1,30.2,29.90,West,265,0.0,0.0,76,0.00,,,0.00,0.0,WeatherDisplay:10.37,2013-02-20 13:10:00,
2013-02-20 05:15:00,37.3,30.7,29.90,West,265,0.9,2.3,77,0.00,,,0.00,0.0,WeatherDisplay:10.37,2013-02-20 13:15:00,
2013-02-20 05:20:00,37.6,30.7,29.90,West,265,0.0,1.1,76,0.00,,,0.00,0.0,WeatherDisplay:10.37,2013-02-20 13:20:00,
2013-02-20 05:25:00,37.3,30.1,29.90,West,265,0.0,0.0,75,0.00,,,0.00,0.0,WeatherDisplay:10.37,2013-02-20 13:25:00,
2013-02-20 05:30:00,37.0,30.1,29.90,West,265,0.0,0.0,76,0.00,,,0.00,0.0,WeatherDisplay:10.37,2013-02-20 13:30:00,
2013-02-20 05:35:00,36.7,29.8,29.90,West,265,0.0,0.0,76,0.00,,,0.00,0.0,WeatherDisplay:10.37,2013-02-20 13:35:00,
2013-02-20 05:40:00,36.8,29.9,29.90,West,265,0.0,0.0,76,0.00,,,0.00,0.0,WeatherDisplay:10.37,2013-02-20 13:40:00,
2013-02-20 05:45:00,36.5,30.0,29.90,West,265,0.0,0.0,77,0.00,,,0.00,0.0,WeatherDisplay:10.37,2013-02-20 13:45:00,
2013-02-20 05:50:00,36.8,30.3,29.90,West,265,0.0,0.0,77,0.00,,,0.00,0.0,WeatherDisplay:10.37,2013-02-20 13:50:00,
2013-02-20 05:55:00,37.1,30.2,29.91,West,265,0.0,0.0,76,0.00,,,0.00,0.0,WeatherDisplay:10.37,2013-02-20 13:55:00,
2013-02-20 06:00:00,37.3,30.1,29.91,West,265,0.0,0.0,75,0.00,,,0.00,0.0,WeatherDisplay:10.37,2013-02-20 14:00:00,
2013-02-20 06:05:00,37.3,30.1,29.91,West,265,0.3,1.1,75,0.00,,,0.00,0.0,WeatherDisplay:10.37,2013-02-20 14:05:00,
2013-02-20 06:10:00,37.6,30.1,29.91,West,265,0.5,1.1,74,0.00,,,0.00,0.0,WeatherDisplay:10.37,2013-02-20 14:10:00,
2013-02-20 06:15:00,37.7,29.8,29.91,West,265,0.0,0.0,73,0.00,,,0.00,0.0,WeatherDisplay:10.37,2013-02-20 14:15:00,
2013-02-20 06:20:00,37.6,29.7,29.91,West,265,0.0,0.0,73,0.00,,,0.00,0.0,WeatherDisplay:10.37,2013-02-20 14:20:00,
2013-02-20 06:25:00,36.9,29.4,29.92,West,265,0.0,0.0,74,0.00,,,0.00,0.0,WeatherDisplay:10.37,2013-02-20 14:25:00,
2013-02-20 06:30:00,37.0,29.5,29.92,West,265,0.0,0.0,74,0.00,,,0.00,0.0,WeatherDisplay:10.37,2013-02-20 14:30:00,
2013-02-20 06:35:00,37.2,29.7,29.91,West,265,0.0,0.0,74,0.00,,,0.00,0.0,WeatherDisplay:10.37,2013-02-20 14:35:00,
2013-02-20 06:40:00,37.1,29.6,29.92,West,265,0.7,2.0,74,0.00,,,0.00,0.0,WeatherDisplay:10.37,2013-02-20 14:40:00,
2013-02-20 06:45:00,36.8,29.6,29.92,West,265,0.0,1.1,75,0.00,,,0.00,0.0,WeatherDisplay:10.37,2013-02-20 14:45:00,
2013-02-20 06:50:00,36.9,29.7,29.92,West,265,1.0,2.3,75,0.00,,,0.00,0.0,WeatherDisplay:10.37,2013-02-20 14:50:00,
2013-02-20 06:55:00,37.2,30.0,29.92,West,265,0.0,0.0,75,0.00,,,0.00,0.0,WeatherDisplay:10.37,2013-02-20 14:55:00,
2013-02-20 07:00:00,37.3,29.8,29.92,West,265,0.0,0.0,74,0.00,,,0.00,7.0,WeatherDisplay:10.37,2013-02-20 15:00:00,
2013-02-20 07:05:00,37.4,29.9,29.92,West,265,0.0,0.0,74,0.00,,,0.00,11.0,WeatherDisplay:10.37,2013-02-20 15:05:00,
2013-02-20 07:10:00,38.0,30.1,29.93,West,265,0.0,0.0,73,0.00,,,0.00,14.0,WeatherDisplay:10.37,2013-02-20 15:10:00,
2013-02-20 07:15:00,38.0,30.1,29.93,West,265,0.0,0.0,73,0.00,,,0.00,18.0,WeatherDisplay:10.37,2013-02-20 15:15:00,
2013-02-20 07:20:00,37.4,29.9,29.93,West,265,1.3,2.3,74,0.00,,,0.00,26.0,WeatherDisplay:10.37,2013-02-20 15:20:00,
2013-02-20 07:25:00,37.3,30.4,29.93,West,265,1.4,1.4,76,0.00,,,0.00,25.0,WeatherDisplay:10.37,2013-02-20 15:25:00,
2013-02-20 07:30:00,37.7,30.8,29.94,West,265,0.1,2.3,76,0.00,,,0.00,23.0,WeatherDisplay:10.37,2013-02-20 15:30:00,
2013-02-20 07:35:00,38.1,31.2,29.94,West,265,0.7,2.3,76,0.00,CLR,,0.00,40.0,WeatherDisplay:10.37,2013-02-20 15:35:00,
2013-02-20 07:40:00,39.1,31.2,29.94,West,265,0.0,1.1,73,0.00,CLR,,0.00,88.0,WeatherDisplay:10.37,2013-02-20 15:40:00,
2013-02-20 07:45:00,39.9,31.3,29.94,West,265,0.0,0.0,71,0.00,CLR,,0.00,107.0,WeatherDisplay:10.37,2013-02-20 15:45:00,
2013-02-20 07:50:00,40.4,31.7,29.94,West,265,0.0,0.0,71,0.00,CLR,,0.00,125.0,WeatherDisplay:10.37,2013-02-20 15:50:00,
2013-02-20 07:55:00,41.1,31.7,29.95,West,265,0.0,0.0,69,0.00,CLR,,0.00,151.0,WeatherDisplay:10.37,2013-02-20 15:55:00,
2013-02-20 08:00:00,41.1,32.4,29.95,West,265,0.0,0.0,71,0.00,CLR,,0.00,169.0,WeatherDisplay:10.37,2013-02-20 16:00:00,
2013-02-20 08:05:00,40.9,32.2,29.95,West,265,0.4,1.1,71,0.00,CLR,,0.00,192.0,WeatherDisplay:10.37,2013-02-20 16:05:00,
2013-02-20 08:10:00,41.4,32.7,29.95,West,265,0.5,2.3,71,0.00,CLR,,0.00,213.0,WeatherDisplay:10.37,2013-02-20 16:10:00,
2013-02-20 08:15:00,41.8,32.7,29.96,West,265,0.1,0.0,70,0.00,CLR,,0.00,232.0,WeatherDisplay:10.37,2013-02-20 16:15:00,
2013-02-20 08:20:00,42.2,32.4,29.96,West,265,0.0,0.0,68,0.00,CLR,,0.00,253.0,WeatherDisplay:10.37,2013-02-20 16:20:00,
2013-02-20 08:25:00,43.1,32.9,29.96,West,265,0.1,1.1,67,0.00,CLR,,0.00,274.0,WeatherDisplay:10.37,2013-02-20 16:25:00,
2013-02-20 08:30:00,44.3,34.0,29.96,West,265,0.0,0.0,67,0.00,CLR,,0.00,287.0,WeatherDisplay:10.37,2013-02-20 16:30:00,
2013-02-20 08:35:00,45.4,33.5,29.96,West,265,0.0,1.1,63,0.00,CLR,,0.00,306.0,WeatherDisplay:10.37,2013-02-20 16:35:00,
2013-02-20 08:40:00,46.1,34.2,29.96,North,355,1.0,3.5,63,0.00,CLR,,0.00,327.0,WeatherDisplay:10.37,2013-02-20 16:40:00,
2013-02-20 08:45:00,46.5,34.2,29.96,NNE,24,2.2,3.5,62,0.00,CLR,,0.00,336.0,WeatherDisplay:10.37,2013-02-20 16:45:00,
2013-02-20 08:50:00,47.5,34.7,29.96,NNE,29,3.1,3.5,61,0.00,CLR,,0.00,357.0,WeatherDisplay:10.37,2013-02-20 16:50:00,
2013-02-20 08:55:00,48.1,34.4,29.96,NNE,15,3.7,4.6,59,0.00,CLR,,0.00,371.0,WeatherDisplay:10.37,2013-02-20 16:55:00,
2013-02-20 09:00:00,48.7,33.2,29.96,NNE,22,3.7,5.8,55,0.00,CLR,,0.00,387.0,WeatherDisplay:10.37,2013-02-20 17:00:00,
2013-02-20 09:05:00,49.5,34.4,29.96,NNE,16,2.1,3.5,56,0.00,CLR,,0.00,406.0,WeatherDisplay:10.37,2013-02-20 17:05:00,
2013-02-20 09:10:00,50.1,34.1,29.96,NNE,21,3.4,4.6,54,0.00,CLR,,0.00,422.0,WeatherDisplay:10.37,2013-02-20 17:10:00,
2013-02-20 09:15:00,50.8,34.3,29.97,NNE,26,1.4,3.5,53,0.00,CLR,,0.00,436.0,WeatherDisplay:10.37,2013-02-20 17:15:00,
2013-02-20 09:20:00,51.3,33.8,29.97,North,360,0.7,2.3,51,0.00,CLR,,0.00,452.0,WeatherDisplay:10.37,2013-02-20 17:20:00,
2013-02-20 09:25:00,51.7,33.6,29.97,North,9,0.3,1.1,50,0.00,CLR,,0.00,466.0,WeatherDisplay:10.37,2013-02-20 17:25:00,
2013-02-20 09:30:00,51.9,33.3,29.97,NNE,23,2.1,4.6,49,0.00,CLR,,0.00,480.0,WeatherDisplay:10.37,2013-02-20 17:30:00,
2013-02-20 09:35:00,52.6,34.0,29.97,NNE,14,0.3,1.1,49,0.00,CLR,,0.00,497.0,WeatherDisplay:10.37,2013-02-20 17:35:00,
2013-02-20 09:40:00,53.1,33.9,29.97,NNE,17,2.1,3.5,48,0.00,CLR,,0.00,510.0,WeatherDisplay:10.37,2013-02-20 17:40:00,
2013-02-20 09:45:00,53.1,32.8,29.97,NNE,13,2.6,3.5,46,0.00,CLR,,0.00,524.0,WeatherDisplay:10.37,2013-02-20 17:45:00,
2013-02-20 09:50:00,53.3,33.6,29.97,North,360,2.3,3.5,47,0.00,CLR,,0.00,540.0,WeatherDisplay:10.37,2013-02-20 17:50:00,
2013-02-20 09:55:00,53.5,33.2,29.98,NNE,19,2.6,3.5,46,0.00,CLR,,0.00,548.0,WeatherDisplay:10.37,2013-02-20 17:55:00,
2013-02-20 10:00:00,53.4,33.1,29.98,NNE,19,1.3,8.0,46,0.00,CLR,,0.00,564.0,WeatherDisplay:10.37,2013-02-20 18:00:00,
2013-02-20 10:05:00,53.4,33.1,29.97,NNE,25,2.8,4.6,46,0.00,CLR,,0.00,573.0,WeatherDisplay:10.37,2013-02-20 18:05:00,
2013-02-20 10:10:00,53.7,33.9,29.97,NE,37,2.5,4.6,47,0.00,CLR,,0.00,587.0,WeatherDisplay:10.37,2013-02-20 18:10:00,
2013-02-20 10:15:00,53.8,33.5,29.97,North,355,1.1,3.5,46,0.00,CLR,,0.00,601.0,WeatherDisplay:10.37,2013-02-20 18:15:00,
2013-02-20 10:20:00,54.0,33.1,29.97,NNE,13,3.3,5.8,45,0.00,CLR,,0.00,612.0,WeatherDisplay:10.37,2013-02-20 18:20:00,
2013-02-20 10:25:00,54.2,33.3,29.97,NNE,26,3.2,5.8,45,0.00,CLR,,0.00,621.0,WeatherDisplay:10.37,2013-02-20 18:25:00,
2013-02-20 10:30:00,54.3,33.4,29.98,NNE,19,3.6,4.6,45,0.00,CLR,,0.00,635.0,WeatherDisplay:10.37,2013-02-20 18:30:00,
2013-02-20 10:35:00,54.4,33.5,29.98,NNE,22,4.8,6.9,45,0.00,CLR,,0.00,642.0,WeatherDisplay:10.37,2013-02-20 18:35:00,
2013-02-20 10:40:00,54.6,33.7,29.98,NNE,15,1.7,5.8,45,0.00,CLR,,0.00,652.0,WeatherDisplay:10.37,2013-02-20 18:40:00,
2013-02-20 10:45:00,54.7,32.6,29.98,NNE,28,5.2,8.1,43,0.00,CLR,,0.00,664.0,WeatherDisplay:10.37,2013-02-20 18:45:00,
2013-02-20 10:50:00,54.9,33.4,29.98,North,360,3.8,5.8,44,0.00,CLR,,0.00,673.0,WeatherDisplay:10.37,2013-02-20 18:50:00,
2013-02-20 10:55:00,54.7,33.2,29.98,North,355,4.6,9.2,44,0.00,CLR,,0.00,682.0,WeatherDisplay:10.37,2013-02-20 18:55:00,
2013-02-20 11:00:00,55.3,32.6,29.98,NE,42,3.6,5.8,42,0.00,CLR,,0.00,691.0,WeatherDisplay:10.37,2013-02-20 19:00:00,
2013-02-20 11:05:00,55.2,33.1,29.98,NE,37,4.0,6.9,43,0.00,CLR,,0.00,696.0,WeatherDisplay:10.37,2013-02-20 19:05:00,
2013-02-20 11:10:00,55.9,33.1,29.98,North,5,4.5,5.8,42,0.00,CLR,,0.00,703.0,WeatherDisplay:10.37,2013-02-20 19:10:00,
2013-02-20 11:15:00,55.7,32.9,29.98,NNE,24,2.4,6.9,42,0.00,CLR,,0.00,710.0,WeatherDisplay:10.37,2013-02-20 19:15:00,
2013-02-20 11:20:00,56.2,35.1,29.98,North,11,3.1,4.6,45,0.00,CLR,,0.00,715.0,WeatherDisplay:10.37,2013-02-20 19:20:00,
2013-02-20 11:25:00,56.6,33.2,29.98,NNE,22,2.7,4.6,41,0.00,CLR,,0.00,722.0,WeatherDisplay:10.37,2013-02-20 19:25:00,
2013-02-20 11:30:00,56.8,37.8,29.98,NNE,30,1.1,3.5,49,0.00,CLR,,0.00,724.0,WeatherDisplay:10.37,2013-02-20 19:30:00,
2013-02-20 11:35:00,56.2,37.8,29.98,NNE,32,3.4,3.4,50,0.00,CLR,,0.00,731.0,WeatherDisplay:10.37,2013-02-20 19:35:00,
2013-02-20 11:40:00,56.1,36.7,29.98,NNE,32,5.0,6.9,48,0.00,CLR,,0.00,733.0,WeatherDisplay:10.37,2013-02-20 19:40:00,
2013-02-20 11:45:00,55.6,36.7,29.97,NE,46,2.9,3.5,49,0.00,CLR,,0.00,740.0,WeatherDisplay:10.37,2013-02-20 19:45:00,
2013-02-20 11:50:00,56.1,37.2,29.98,NNE,33,1.7,6.9,49,0.00,CLR,,0.00,744.0,WeatherDisplay:10.37,2013-02-20 19:50:00,
2013-02-20 11:55:00,56.8,37.8,29.98,NNE,21,2.3,3.5,49,0.00,CLR,,0.00,744.0,WeatherDisplay:10.37,2013-02-20 19:55:00,
2013-02-20 12:00:00,56.2,36.2,29.98,ENE,63,2.7,3.5,47,0.00,CLR,,0.00,747.0,WeatherDisplay:10.37,2013-02-20 20:00:00,
2013-02-20 12:05:00,56.3,35.8,29.97,NNE,30,2.0,3.5,46,0.00,CLR,,0.00,751.0,WeatherDisplay:10.37,2013-02-20 20:05:00,
2013-02-20 12:10:00,57.0,34.7,29.98,NNE,19,3.3,4.6,43,0.00,CLR,,0.00,752.0,WeatherDisplay:10.37,2013-02-20 20:10:00,
2013-02-20 12:15:00,57.5,34.0,29.97,NNE,24,5.2,6.9,41,0.00,CLR,,0.00,710.0,WeatherDisplay:10.37,2013-02-20 20:15:00,
2013-02-20 12:20:00,57.6,35.2,29.97,WNW,300,3.5,4.6,43,0.00,CLR,,0.00,705.0,WeatherDisplay:10.37,2013-02-20 20:20:00,
2013-02-20 12:25:00,58.0,36.2,29.97,North,360,2.6,3.5,44,0.00,CLR,,0.00,751.0,WeatherDisplay:10.37,2013-02-20 20:25:00,
2013-02-20 12:30:00,58.3,35.3,29.97,NNW,331,1.7,5.8,42,0.00,CLR,,0.00,752.0,WeatherDisplay:10.37,2013-02-20 20:30:00,
2013-02-20 12:35:00,58.6,36.7,29.97,NE,48,3.2,6.9,44,0.00,CLR,,0.00,749.0,WeatherDisplay:10.37,2013-02-20 20:35:00,
2013-02-20 12:40:00,58.2,36.4,29.97,North,360,3.4,6.9,44,0.00,CLR,,0.00,738.0,WeatherDisplay:10.37,2013-02-20 20:40:00,
2013-02-20 12:45:00,58.6,35.6,29.97,North,351,3.6,5.8,42,0.00,CLR,,0.00,752.0,WeatherDisplay:10.37,2013-02-20 20:45:00,
2013-02-20 12:50:00,58.0,36.2,29.97,WNW,291,2.2,5.8,44,0.00,CLR,,0.00,752.0,WeatherDisplay:10.37,2013-02-20 20:50:00,
2013-02-20 12:55:00,58.2,36.9,29.96,NNE,13,1.7,3.5,45,0.00,CLR,,0.00,751.0,WeatherDisplay:10.37,2013-02-20 20:55:00,
2013-02-20 13:00:00,58.5,37.2,29.96,NNE,18,0.6,6.9,45,0.00,CLR,,0.00,745.0,WeatherDisplay:10.37,2013-02-20 21:00:00,
2013-02-20 13:05:00,59.0,37.1,29.96,North,11,2.0,3.5,44,0.00,CLR,,0.00,735.0,WeatherDisplay:10.37,2013-02-20 21:05:00,
2013-02-20 13:10:00,59.0,36.5,29.96,NNE,18,2.3,3.5,43,0.00,CLR,,0.00,752.0,WeatherDisplay:10.37,2013-02-20 21:10:00,
2013-02-20 13:15:00,58.2,36.4,29.96,WSW,257,1.9,4.6,44,0.00,CLR,,0.00,652.0,WeatherDisplay:10.37,2013-02-20 21:15:00,
2013-02-20 13:20:00,58.0,36.2,29.96,NW,325,1.9,2.3,44,0.00,CLR,,0.00,719.0,WeatherDisplay:10.37,2013-02-20 21:20:00,
2013-02-20 13:25:00,57.8,36.0,29.95,NE,53,1.4,3.5,44,0.00,CLR,,0.00,561.0,WeatherDisplay:10.37,2013-02-20 21:25:00,
2013-02-20 13:30:00,57.0,36.4,29.95,WSW,252,3.9,5.8,46,0.00,CLR,,0.00,740.0,WeatherDisplay:10.37,2013-02-20 21:30:00,
2013-02-20 13:35:00,57.6,37.5,29.95,WSW,256,1.8,5.0,47,0.00,CLR,,0.00,643.0,WeatherDisplay:10.37,2013-02-20 21:35:00,
2013-02-20 13:40:00,56.8,36.2,29.95,NW,322,2.4,9.2,46,0.00,CLR,,0.00,766.0,WeatherDisplay:10.37,2013-02-20 21:40:00,
2013-02-20 13:45:00,57.0,35.9,29.95,NW,323,3.0,9.2,45,0.00,CLR,,0.00,735.0,WeatherDisplay:10.37,2013-02-20 21:45:00,
2013-02-20 13:50:00,58.0,37.3,29.95,NNW,336,1.8,3.5,46,0.00,CLR,,0.00,668.0,WeatherDisplay:10.37,2013-02-20 21:50:00,
2013-02-20 13:55:00,59.0,37.1,29.95,WNW,282,1.3,4.6,44,0.00,CLR,,0.00,686.0,WeatherDisplay:10.37,2013-02-20 21:55:00,
2013-02-20 14:00:00,58.7,36.8,29.95,NNE,13,3.4,3.5,44,0.00,CLR,,0.00,679.0,WeatherDisplay:10.37,2013-02-20 22:00:00,
2013-02-20 14:05:00,58.1,36.9,29.95,West,261,3.9,6.9,45,0.00,CLR,,0.00,668.0,WeatherDisplay:10.37,2013-02-20 22:05:00,
2013-02-20 14:10:00,57.9,37.2,29.95,West,275,4.2,6.9,46,0.00,CLR,,0.00,657.0,WeatherDisplay:10.37,2013-02-20 22:10:00,
2013-02-20 14:15:00,57.5,37.4,29.95,WNW,288,3.8,6.9,47,0.00,CLR,,0.00,649.0,WeatherDisplay:10.37,2013-02-20 22:15:00,
2013-02-20 14:20:00,57.2,36.6,29.95,NW,324,1.7,8.1,46,0.00,CLR,,0.00,626.0,WeatherDisplay:10.37,2013-02-20 22:20:00,
2013-02-20 14:25:00,57.7,37.0,29.95,WNW,294,1.0,3.0,46,0.00,CLR,,0.00,624.0,WeatherDisplay:10.37,2013-02-20 22:25:00,
2013-02-20 14:30:00,58.0,37.3,29.95,SW,229,0.6,2.3,46,0.00,CLR,,0.00,617.0,WeatherDisplay:10.37,2013-02-20 22:30:00,
2013-02-20 14:35:00,57.6,37.0,29.95,WNW,292,4.6,5.8,46,0.00,CLR,,0.00,610.0,WeatherDisplay:10.37,2013-02-20 22:35:00,
2013-02-20 14:40:00,57.2,36.6,29.95,WNW,287,1.2,2.3,46,0.00,CLR,,0.00,594.0,WeatherDisplay:10.37,2013-02-20 22:40:00,
2013-02-20 14:45:00,57.1,37.0,29.94,West,267,2.6,6.9,47,0.00,CLR,,0.00,585.0,WeatherDisplay:10.37,2013-02-20 22:45:00,
2013-02-20 14:50:00,57.0,37.0,29.95,WNW,284,2.4,4.0,47,0.00,CLR,,0.00,570.0,WeatherDisplay:10.37,2013-02-20 22:50:00,
2013-02-20 14:55:00,57.0,36.4,29.95,West,260,3.1,8.1,46,0.00,CLR,,0.00,554.0,WeatherDisplay:10.37,2013-02-20 22:55:00,
2013-02-20 15:00:00,57.0,36.4,29.94,WNW,295,2.7,5.8,46,0.00,CLR,,0.00,547.0,WeatherDisplay:10.37,2013-02-20 23:00:00,
2013-02-20 15:05:00,57.0,36.4,29.94,West,261,1.7,8.1,46,0.00,CLR,,0.00,527.0,WeatherDisplay:10.37,2013-02-20 23:05:00,
2013-02-20 15:10:00,57.0,37.0,29.94,WSW,255,1.4,3.5,47,0.00,CLR,,0.00,515.0,WeatherDisplay:10.37,2013-02-20 23:10:00,
2013-02-20 15:15:00,57.0,37.5,29.94,West,277,4.0,6.9,48,0.00,CLR,,0.00,501.0,WeatherDisplay:10.37,2013-02-20 23:15:00,
2013-02-20 15:20:00,56.3,37.4,29.94,WNW,291,2.1,3.5,49,0.00,CLR,,0.00,434.0,WeatherDisplay:10.37,2013-02-20 23:20:00,
2013-02-20 15:25:00,55.9,36.5,29.94,NW,315,4.9,10.4,48,0.00,SCT,,0.00,243.0,WeatherDisplay:10.37,2013-02-20 23:25:00,
2013-02-20 15:30:00,55.8,36.9,29.95,West,275,1.2,3.5,49,0.00,SCT,,0.00,220.0,WeatherDisplay:10.37,2013-02-20 23:30:00,
2013-02-20 15:35:00,55.9,37.0,29.94,WNW,296,2.7,3.5,49,0.00,BKN,,0.00,102.0,WeatherDisplay:10.37,2013-02-20 23:35:00,
2013-02-20 15:40:00,55.7,37.3,29.94,West,273,7.8,10.4,50,0.00,BKN,,0.00,137.0,WeatherDisplay:10.37,2013-02-20 23:40:00,
2013-02-20 15:45:00,55.6,37.2,29.94,West,265,2.2,2.3,50,0.00,BKN,,0.00,93.0,WeatherDisplay:10.37,2013-02-20 23:45:00,
2013-02-20 15:50:00,55.5,38.1,29.94,North,355,1.2,3.5,52,0.00,BKN,,0.00,90.0,WeatherDisplay:10.37,2013-02-20 23:50:00,
2013-02-20 15:55:00,55.4,38.1,29.95,West,278,0.4,4.6,52,0.00,BKN,,0.00,58.0,WeatherDisplay:10.37,2013-02-20 23:55:00,
2013-02-20 16:00:00,55.1,38.3,29.95,WNW,284,0.5,2.3,53,0.00,BKN,,0.00,79.0,WeatherDisplay:10.37,2013-02-21 00:00:00,
2013-02-20 16:05:00,54.8,37.5,29.95,West,269,3.3,5.8,52,0.00,SCT,,0.00,181.0,WeatherDisplay:10.37,2013-02-21 00:05:00,
2013-02-20 16:10:00,54.4,37.6,29.95,WNW,291,2.3,3.5,53,0.00,SCT,,0.00,206.0,WeatherDisplay:10.37,2013-02-21 00:10:00,
2013-02-20 16:15:00,54.0,37.7,29.95,WNW,295,2.0,8.0,54,0.00,BKN,,0.00,70.0,WeatherDisplay:10.37,2013-02-21 00:15:00,
2013-02-20 16:20:00,53.6,37.8,29.95,WSW,257,2.4,4.6,55,0.00,BKN,,0.00,39.0,WeatherDisplay:10.37,2013-02-21 00:20:00,
2013-02-20 16:25:00,53.5,37.7,29.96,West,280,3.0,7.0,55,0.00,BKN,,0.00,37.0,WeatherDisplay:10.37,2013-02-21 00:25:00,
2013-02-20 16:30:00,53.1,37.3,29.96,NNW,339,3.3,5.8,55,0.00,BKN,,0.00,37.0,WeatherDisplay:10.37,2013-02-21 00:30:00,
2013-02-20 16:35:00,52.7,37.4,29.96,West,271,1.4,8.1,56,0.00,BKN,,0.00,35.0,WeatherDisplay:10.37,2013-02-21 00:35:00,
2013-02-20 16:40:00,52.4,37.6,29.96,West,259,2.8,5.8,57,0.00,BKN,,0.00,33.0,WeatherDisplay:10.37,2013-02-21 00:40:00,
2013-02-20 16:45:00,52.0,37.7,29.96,NNW,342,2.3,5.8,58,0.00,BKN,,0.00,32.0,WeatherDisplay:10.37,2013-02-21 00:45:00,
2013-02-20 16:50:00,51.7,37.8,29.96,WNW,288,2.7,5.8,59,0.00,BKN,,0.00,30.0,WeatherDisplay:10.37,2013-02-21 00:50:00,
2013-02-20 16:55:00,51.4,38.0,29.96,NW,317,0.8,6.9,60,0.00,BKN,,0.00,28.0,WeatherDisplay:10.37,2013-02-21 00:55:00,
2013-02-20 17:00:00,51.2,37.8,29.96,West,277,1.8,11.5,60,0.00,BKN,,0.00,26.0,WeatherDisplay:10.37,2013-02-21 01:00:00,
2013-02-20 17:05:00,51.0,38.0,29.95,NNW,340,3.6,9.2,61,0.00,BKN,,0.00,25.0,WeatherDisplay:10.37,2013-02-21 01:05:00,
2013-02-20 17:10:00,50.6,37.6,29.96,WNW,289,3.6,9.2,61,0.00,BKN,,0.00,21.0,WeatherDisplay:10.37,2013-02-21 01:10:00,
2013-02-20 17:15:00,50.3,37.8,29.96,NW,317,2.6,6.9,62,0.00,BKN,,0.00,19.0,WeatherDisplay:10.37,2013-02-21 01:15:00,
2013-02-20 17:20:00,50.1,37.6,29.96,NNW,334,4.2,11.5,62,0.00,BKN,,0.00,18.0,WeatherDisplay:10.37,2013-02-21 01:20:00,
2013-02-20 17:25:00,50.0,37.9,29.96,WNW,300,5.2,8.1,63,0.00,BKN,,0.00,16.0,WeatherDisplay:10.37,2013-02-21 01:25:00,
2013-02-20 17:30:00,49.8,37.7,29.96,West,281,5.9,9.2,63,0.00,BKN,,0.00,14.0,WeatherDisplay:10.37,2013-02-21 01:30:00,
2013-02-20 17:35:00,49.7,37.6,29.96,West,259,4.1,8.1,63,0.00,BKN,,0.00,14.0,WeatherDisplay:10.37,2013-02-21 01:35:00,
2013-02-20 17:40:00,49.5,37.4,29.96,NW,304,3.1,10.4,63,0.00,BKN,,0.00,12.0,WeatherDisplay:10.37,2013-02-21 01:40:00,
2013-02-20 17:45:00,49.3,37.6,29.96,West,260,4.8,11.5,64,0.00,BKN,,0.00,9.0,WeatherDisplay:10.37,2013-02-21 01:45:00,
2013-02-20 17:50:00,49.2,37.5,29.96,West,275,2.7,4.6,64,0.00,BKN,,0.00,7.0,WeatherDisplay:10.37,2013-02-21 01:50:00,
2013-02-20 17:55:00,49.0,37.3,29.97,WNW,296,3.2,5.8,64,0.00,,,0.00,0.0,WeatherDisplay:10.37,2013-02-21 01:55:00,
2013-02-20 18:00:00,49.0,37.3,29.97,WNW,294,4.9,9.0,64,0.00,,,0.00,0.0,WeatherDisplay:10.37,2013-02-21 02:00:00,
2013-02-20 18:05:00,48.9,37.3,29.97,WNW,295,3.9,4.6,64,0.00,,,0.00,0.0,WeatherDisplay:10.37,2013-02-21 02:05:00,
2013-02-20 18:10:00,48.7,37.1,29.97,WNW,286,1.6,2.3,64,0.00,,,0.00,0.0,WeatherDisplay:10.37,2013-02-21 02:10:00,
2013-02-20 18:15:00,48.5,37.3,29.97,WNW,287,2.8,4.6,65,0.00,,,0.00,0.0,WeatherDisplay:10.37,2013-02-21 02:15:00,
2013-02-20 18:20:00,48.3,37.1,29.97,WNW,288,5.7,7.0,65,0.00,,,0.00,0.0,WeatherDisplay:10.37,2013-02-21 02:20:00,
2013-02-20 18:25:00,48.2,37.0,29.97,NW,318,1.7,3.5,65,0.00,,,0.00,0.0,WeatherDisplay:10.37,2013-02-21 02:25:00,
2013-02-20 18:30:00,48.2,37.0,29.97,NNW,338,1.6,3.5,65,0.00,,,0.00,0.0,WeatherDisplay:10.37,2013-02-21 02:30:00,
2013-02-20 18:35:00,48.2,36.6,29.97,West,279,3.1,8.1,64,0.00,,,0.00,0.0,WeatherDisplay:10.37,2013-02-21 02:35:00,
2013-02-20 18:40:00,48.5,36.5,29.98,WNW,286,3.5,6.9,63,0.00,,,0.00,0.0,WeatherDisplay:10.37,2013-02-21 02:40:00,
2013-02-20 18:45:00,48.6,36.6,29.97,West,280,0.8,1.0,63,0.00,,,0.00,0.0,WeatherDisplay:10.37,2013-02-21 02:45:00,
2013-02-20 18:50:00,48.6,36.6,29.97,West,279,0.4,1.1,63,0.00,,,0.00,0.0,WeatherDisplay:10.37,2013-02-21 02:50:00,
2013-02-20 18:55:00,48.5,36.5,29.98,West,279,1.3,3.5,63,0.00,,,0.00,0.0,WeatherDisplay:10.37,2013-02-21 02:55:00,
2013-02-20 19:00:00,48.4,36.8,29.98,WNW,285,0.9,2.3,64,0.00,,,0.00,0.0,WeatherDisplay:10.37,2013-02-21 03:00:00,
2013-02-20 19:05:00,48.2,36.6,29.98,NW,319,0.1,1.1,64,0.00,,,0.00,0.0,WeatherDisplay:10.37,2013-02-21 03:05:00,
2013-02-20 19:10:00,48.1,36.9,29.98,NE,40,1.6,3.5,65,0.00,,,0.00,0.0,WeatherDisplay:10.37,2013-02-21 03:10:00,
2013-02-20 19:15:00,47.9,37.1,29.98,NNW,330,1.6,3.5,66,0.00,,,0.00,0.0,WeatherDisplay:10.37,2013-02-21 03:15:00,
2013-02-20 19:20:00,48.0,37.2,29.98,West,261,5.1,9.2,66,0.00,,,0.00,0.0,WeatherDisplay:10.37,2013-02-21 03:20:00,
2013-02-20 19:25:00,48.1,37.3,29.99,NNE,26,1.3,4.6,66,0.00,,,0.00,0.0,WeatherDisplay:10.37,2013-02-21 03:25:00,
2013-02-20 19:30:00,48.1,37.3,29.99,West,274,2.5,8.1,66,0.00,,,0.00,0.0,WeatherDisplay:10.37,2013-02-21 03:30:00,
2013-02-20 19:35:00,48.1,37.3,29.99,West,263,1.1,2.3,66,0.00,,,0.00,0.0,WeatherDisplay:10.37,2013-02-21 03:35:00,
2013-02-20 19:40:00,48.2,37.4,29.99,West,279,1.9,6.0,66,0.00,,,0.00,0.0,WeatherDisplay:10.37,2013-02-21 03:40:00,
2013-02-20 19:45:00,48.2,37.4,30.00,West,272,2.1,5.8,66,0.00,,,0.00,0.0,WeatherDisplay:10.37,2013-02-21 03:45:00,
2013-02-20 19:50:00,48.3,37.5,30.00,WNW,284,2.6,6.9,66,0.00,,,0.00,0.0,WeatherDisplay:10.37,2013-02-21 03:50:00,
2013-02-20 19:55:00,48.4,37.6,30.00,ENE,64,2.9,8.1,66,0.00,,,0.00,0.0,WeatherDisplay:10.37,2013-02-21 03:55:00,
2013-02-20 20:00:00,48.3,37.5,30.00,North,5,1.7,6.9,66,0.00,,,0.00,0.0,WeatherDisplay:10.37,2013-02-21 04:00:00,
2013-02-20 20:05:00,48.2,37.4,30.01,WNW,289,3.0,8.1,66,0.00,CLR,,0.00,0.0,WeatherDisplay:10.37,2013-02-21 04:05:00,
2013-02-20 20:10:00,48.2,37.4,30.01,West,264,3.4,16.1,66,0.00,CLR,,0.00,0.0,WeatherDisplay:10.37,2013-02-21 04:10:00,
2013-02-20 20:15:00,48.3,37.5,30.01,West,271,4.4,8.1,66,0.00,CLR,,0.00,0.0,WeatherDisplay:10.37,2013-02-21 04:15:00,
2013-02-20 20:20:00,48.4,37.2,30.01,WNW,287,4.4,11.5,65,0.00,CLR,,0.00,0.0,WeatherDisplay:10.37,2013-02-21 04:20:00,
2013-02-20 20:25:00,48.4,37.2,30.01,WNW,290,4.9,11.5,65,0.00,CLR,,0.00,0.0,WeatherDisplay:10.37,2013-02-21 04:25:00,
2013-02-20 20:30:00,48.3,37.1,30.01,NW,319,3.8,4.6,65,0.00,CLR,,0.00,0.0,WeatherDisplay:10.37,2013-02-21 04:30:00,
2013-02-20 20:35:00,48.2,37.0,30.01,West,279,5.4,10.4,65,0.00,CLR,,0.00,0.0,WeatherDisplay:10.37,2013-02-21 04:35:00,
2013-02-20 20:40:00,48.2,36.6,30.01,West,281,3.4,8.1,64,0.00,CLR,,0.00,0.0,WeatherDisplay:10.37,2013-02-21 04:40:00,
2013-02-20 20:45:00,48.3,36.7,30.01,WNW,290,4.6,5.8,64,0.00,CLR,,0.00,0.0,WeatherDisplay:10.37,2013-02-21 04:45:00,
2013-02-20 20:50:00,48.4,36.4,30.01,West,276,4.4,4.6,63,0.00,CLR,,0.00,0.0,WeatherDisplay:10.37,2013-02-21 04:50:00,
2013-02-20 20:55:00,48.5,36.1,30.01,West,264,1.1,8.1,62,0.00,CLR,,0.00,0.0,WeatherDisplay:10.37,2013-02-21 04:55:00,
2013-02-20 21:00:00,48.5,36.1,30.01,WNW,295,3.0,6.9,62,0.00,CLR,,0.00,0.0,WeatherDisplay:10.37,2013-02-21 05:00:00,
2013-02-20 21:01:00,48.5,35.7,30.01,WSW,246,2.0,4.0,61,0.00,CLR,,0.00,0.0,WeatherDisplay:10.37,2013-02-21 05:01:00,
2013-02-20 21:05:00,48.4,35.6,30.01,South,172,1.4,3.5,61,0.00,CLR,,0.00,0.0,WeatherDisplay:10.37,2013-02-21 05:05:00,
2013-02-20 21:10:00,48.3,35.5,30.02,North,350,0.1,1.1,61,0.00,CLR,,0.00,0.0,WeatherDisplay:10.37,2013-02-21 05:10:00,
2013-02-20 21:15:00,48.0,35.6,30.02,North,350,0.0,0.0,62,0.00,CLR,,0.00,0.0,WeatherDisplay:10.37,2013-02-21 05:15:00,
2013-02-20 21:20:00,47.7,35.3,30.02,North,350,0.0,0.0,62,0.00,CLR,,0.00,0.0,WeatherDisplay:10.37,2013-02-21 05:20:00,
2013-02-20 21:25:00,47.5,35.5,30.02,WNW,294,2.0,3.5,63,0.00,CLR,,0.00,0.0,WeatherDisplay:10.37,2013-02-21 05:25:00,
2013-02-20 21:30:00,47.5,35.1,30.03,WNW,291,1.8,3.0,62,0.00,CLR,,0.00,0.0,WeatherDisplay:10.37,2013-02-21 05:30:00,
2013-02-20 21:35:00,47.8,35.0,30.04,WNW,290,0.2,1.1,61,0.00,CLR,,0.00,0.0,WeatherDisplay:10.37,2013-02-21 05:35:00,
2013-02-20 21:40:00,47.7,35.3,30.04,WNW,301,1.0,9.2,62,0.00,CLR,,0.00,0.0,WeatherDisplay:10.37,2013-02-21 05:40:00,
2013-02-20 21:45:00,47.6,35.6,30.04,WNW,301,5.1,15.0,63,0.00,CLR,,0.00,0.0,WeatherDisplay:10.37,2013-02-21 05:45:00,
2013-02-20 21:50:00,47.3,35.7,30.04,WNW,283,0.8,5.0,64,0.00,CLR,,0.00,0.0,WeatherDisplay:10.37,2013-02-21 05:50:00,
2013-02-20 21:55:00,46.9,35.7,30.04,WNW,284,0.0,2.3,65,0.00,CLR,,0.00,0.0,WeatherDisplay:10.37,2013-02-21 05:55:00,
2013-02-20 22:00:00,46.6,35.8,30.04,WNW,285,3.2,5.8,66,0.00,CLR,,0.00,0.0,WeatherDisplay:10.37,2013-02-21 06:00:00,
2013-02-20 22:05:00,46.5,36.1,30.04,WNW,290,4.9,10.4,67,0.00,CLR,,0.00,0.0,WeatherDisplay:10.37,2013-02-21 06:05:00,
2013-02-20 22:10:00,46.5,36.1,30.04,WNW,295,4.5,4.5,67,0.00,CLR,,0.00,0.0,WeatherDisplay:10.37,2013-02-21 06:10:00,
2013-02-20 22:15:00,46.5,36.1,30.04,West,269,5.5,9.2,67,0.00,CLR,,0.00,0.0,WeatherDisplay:10.37,2013-02-21 06:15:00,
2013-02-20 22:20:00,46.3,35.9,30.04,West,276,2.8,3.5,67,0.00,CLR,,0.00,0.0,WeatherDisplay:10.37,2013-02-21 06:20:00,
2013-02-20 22:25:00,46.3,35.9,30.04,WNW,293,2.1,6.9,67,0.00,CLR,,0.00,0.0,WeatherDisplay:10.37,2013-02-21 06:25:00,
2013-02-20 22:30:00,46.2,35.8,30.04,WNW,294,1.2,5.8,67,0.00,CLR,,0.00,0.0,WeatherDisplay:10.37,2013-02-21 06:30:00,
2013-02-20 22:35:00,46.2,35.8,30.04,WNW,293,0.7,2.3,67,0.00,CLR,,0.00,0.0,WeatherDisplay:10.37,2013-02-21 06:35:00,
2013-02-20 22:40:00,46.0,35.7,30.03,WNW,292,0.4,0.0,67,0.00,CLR,,0.00,0.0,WeatherDisplay:10.37,2013-02-21 06:40:00,
2013-02-20 22:45:00,45.7,35.7,30.03,WNW,294,1.2,3.5,68,0.00,CLR,,0.00,0.0,WeatherDisplay:10.37,2013-02-21 06:45:00,
2013-02-20 22:50:00,45.5,35.9,30.03,NNE,18,0.2,2.3,69,0.00,CLR,,0.00,0.0,WeatherDisplay:10.37,2013-02-21 06:50:00,
2013-02-20 22:55:00,45.1,35.9,30.02,NNE,18,0.1,0.0,70,0.00,CLR,,0.00,0.0,WeatherDisplay:10.37,2013-02-21 06:55:00,
2013-02-20 23:00:00,45.0,36.2,30.03,ENE,60,0.5,2.3,71,0.00,CLR,,0.00,0.0,WeatherDisplay:10.37,2013-02-21 07:00:00,
2013-02-20 23:05:00,44.9,36.1,30.03,East,97,0.3,0.0,71,0.00,,,0.00,0.0,WeatherDisplay:10.37,2013-02-21 07:05:00,
2013-02-20 23:10:00,44.9,36.1,30.03,East,92,0.7,3.5,71,0.00,,,0.00,0.0,WeatherDisplay:10.37,2013-02-21 07:10:00,
2013-02-20 23:15:00,44.9,35.7,30.03,East,91,0.0,0.0,70,0.00,,,0.00,0.0,WeatherDisplay:10.37,2013-02-21 07:15:00,
2013-02-20 23:20:00,44.7,35.9,30.03,East,92,0.0,0.0,71,0.00,,,0.00,0.0,WeatherDisplay:10.37,2013-02-21 07:20:00,
2013-02-20 23:25:00,44.6,35.8,30.03,East,91,0.0,0.0,71,0.00,,,0.00,0.0,WeatherDisplay:10.37,2013-02-21 07:25:00,
2013-02-20 23:30:00,44.4,35.6,30.03,East,92,0.0,2.3,71,0.00,,,0.00,0.0,WeatherDisplay:10.37,2013-02-21 07:30:00,
2013-02-20 23:35:00,44.1,35.3,30.04,WNW,283,3.4,5.0,71,0.00,,,0.00,0.0,WeatherDisplay:10.37,2013-02-21 07:35:00,
2013-02-20 23:40:00,43.9,35.5,30.03,West,279,0.0,0.0,72,0.00,,,0.00,0.0,WeatherDisplay:10.37,2013-02-21 07:40:00,
2013-02-20 23:45:00,44.0,35.6,30.04,West,268,3.0,4.6,72,0.00,,,0.00,0.0,WeatherDisplay:10.37,2013-02-21 07:45:00,
2013-02-20 23:50:00,44.2,35.4,30.04,WNW,296,0.3,1.1,71,0.00,,,0.00,0.0,WeatherDisplay:10.37,2013-02-21 07:50:00,
2013-02-20 23:55:00,44.3,35.5,30.04,NNW,346,0.0,0.0,71,0.00,,,0.00,0.0,WeatherDisplay:10.37,2013-02-21 07:55:00,